Terminal Aerodrome Forecast
Issued by NWS

Home | Current Version | Previous Version | Text Only | Print | Product List | Glossary On
Versions: 1 2 3 4 5 6 7 8 9 10 11 12 13 14 15 16 17 18 19 20 21 22 23 24 25 26 27 28 29 30
000
FTUS43 KDLH 251000 AAB
TAFHIB
TAF AMD
KHIB 251049Z 2511/2606 19012KT 3SM BR VCSH OVC005
     FM251600 24012KT 6SM -SN OVC025
     FM252000 30015G28KT P6SM VCSH OVC035
     FM260000 31015KT P6SM BKN035=

USA.gov is the U.S. government's official web portal to all federal, state and local government web resources and services.